createdAt,value
2023-01-17T00:02:13.849Z,75.76
2023-01-17T00:05:37.921Z,75.98
2023-01-17T00:09:01.571Z,75.75
2023-01-17T00:12:08.749Z,75.68
2023-01-17T00:15:16.869Z,75.76
2023-01-17T00:18:23.107Z,75.53
2023-01-17T00:21:46.738Z,75.52
2023-01-17T00:25:10.300Z,75.35
2023-01-17T00:28:15.292Z,75.71
2023-01-17T00:31:20.298Z,75.71
2023-01-17T00:34:25.266Z,75.94
2023-01-17T00:37:30.227Z,76.11
2023-01-17T00:40:36.026Z,76.05
2023-01-17T00:43:59.795Z,76.10
2023-01-17T00:47:23.329Z,75.98
2023-01-17T00:50:47.352Z,75.91
2023-01-17T00:54:10.831Z,75.81
2023-01-17T00:57:34.595Z,75.84
2023-01-17T01:00:58.207Z,75.63
2023-01-17T01:04:22.339Z,75.85
2023-01-17T01:07:46.117Z,76.05
2023-01-17T01:11:09.992Z,76.22
2023-01-17T01:14:33.466Z,76.46
2023-01-17T01:17:57.233Z,76.36
2023-01-17T01:21:24.804Z,76.27
2023-01-17T01:24:49.095Z,76.23
2023-01-17T01:28:21.051Z,76.30
2023-01-17T01:31:44.861Z,76.17
2023-01-17T01:34:51.214Z,75.98
2023-01-17T01:37:55.550Z,75.96
2023-01-17T01:41:01.487Z,76.27
2023-01-17T01:44:21.387Z,76.34
2023-01-17T01:47:32.144Z,76.62
2023-01-17T01:50:39.087Z,76.75
2023-01-17T01:53:53.996Z,76.60
2023-01-17T01:57:02.120Z,76.64
2023-01-17T02:00:15.827Z,76.61
2023-01-17T02:03:27.340Z,76.73
2023-01-17T02:06:36.864Z,76.56
2023-01-17T02:09:42.952Z,76.49
2023-01-17T02:12:50.654Z,76.80
2023-01-17T02:16:04.421Z,76.85
2023-01-17T02:19:37.469Z,76.91
2023-01-17T02:23:28.388Z,76.98
2023-01-17T02:27:01.219Z,76.93
2023-01-17T02:30:30.951Z,77.08
2023-01-17T02:33:46.887Z,77.20
2023-01-17T02:36:57.885Z,77.39
2023-01-17T02:40:10.175Z,77.42
2023-01-17T02:43:18.135Z,77.53
2023-01-17T02:46:24.384Z,77.74
2023-01-17T02:49:32.939Z,77.32
2023-01-17T02:52:51.378Z,77.23
2023-01-17T02:56:07.309Z,77.59
2023-01-17T02:59:22.339Z,77.60
2023-01-17T03:02:34.571Z,77.73
2023-01-17T03:05:45.695Z,77.58
2023-01-17T03:08:54.606Z,77.66
2023-01-17T03:12:01.170Z,77.67
2023-01-17T03:15:13.106Z,77.82
2023-01-17T03:18:19.734Z,78.08
2023-01-17T03:21:26.411Z,77.92
2023-01-17T03:24:32.688Z,78.00
2023-01-17T03:27:39.011Z,77.82
2023-01-17T03:30:43.436Z,77.75
2023-01-17T03:33:49.949Z,77.78
2023-01-17T03:36:56.420Z,77.80
2023-01-17T03:40:02.654Z,77.92
2023-01-17T03:43:09.096Z,77.97
2023-01-17T03:46:23.935Z,77.92
2023-01-17T03:49:30.232Z,77.88
2023-01-17T03:52:34.683Z,77.73
2023-01-17T03:55:40.773Z,77.76
2023-01-17T03:58:47.756Z,77.96
2023-01-17T04:01:54.107Z,78.09
2023-01-17T04:04:58.635Z,77.93
2023-01-17T04:08:06.781Z,78.11
2023-01-17T04:11:12.987Z,78.08
2023-01-17T04:14:19.199Z,78.17
2023-01-17T04:17:26.096Z,78.13
2023-01-17T04:20:35.761Z,78.15
2023-01-17T04:23:42.026Z,78.29
2023-01-17T04:26:48.243Z,78.11
2023-01-17T04:29:54.487Z,78.20
2023-01-17T04:32:59.564Z,78.28
2023-01-17T04:36:06.372Z,78.47
2023-01-17T04:39:12.638Z,78.29
2023-01-17T04:42:18.840Z,78.37
2023-01-17T04:45:25.157Z,78.31
2023-01-17T04:48:31.564Z,78.23
2023-01-17T04:51:37.979Z,78.36
2023-01-17T04:54:44.236Z,78.28
2023-01-17T04:57:50.462Z,78.25
2023-01-17T05:00:57.658Z,78.49
2023-01-17T05:04:03.950Z,78.35
2023-01-17T05:07:08.569Z,78.45
2023-01-17T05:10:15.317Z,78.42
2023-01-17T05:13:21.840Z,78.27
2023-01-17T05:16:28.488Z,78.27
2023-01-17T05:19:34.738Z,78.45
2023-01-17T05:22:40.956Z,78.38
2023-01-17T05:25:47.219Z,78.60
2023-01-17T05:28:51.691Z,78.52
2023-01-17T05:31:57.896Z,78.55
2023-01-17T05:35:04.124Z,78.55
2023-01-17T05:38:10.501Z,78.45
2023-01-17T05:41:15.047Z,78.49
2023-01-17T05:44:21.268Z,78.44
2023-01-17T05:47:27.501Z,78.62
2023-01-17T05:50:35.374Z,78.54
2023-01-17T05:53:41.640Z,78.51
2023-01-17T05:56:47.935Z,78.43
2023-01-17T05:59:52.408Z,78.45
2023-01-17T06:03:00.023Z,78.58
2023-01-17T06:06:06.472Z,78.57
2023-01-17T06:09:11.916Z,78.58
2023-01-17T06:12:18.150Z,78.59
2023-01-17T06:15:24.351Z,78.58
2023-01-17T06:18:30.951Z,78.72
2023-01-17T06:21:37.345Z,78.69
2023-01-17T06:24:41.817Z,78.73
2023-01-17T06:27:48.052Z,78.62
2023-01-17T06:30:54.370Z,78.83
2023-01-17T06:33:58.897Z,78.87
2023-01-17T06:37:05.155Z,78.83
2023-01-17T06:40:14.034Z,78.92
2023-01-17T06:43:20.255Z,79.01
2023-01-17T06:46:26.472Z,78.92
2023-01-17T06:49:32.698Z,78.88
2023-01-17T06:52:39.066Z,79.00
2023-01-17T06:55:43.715Z,78.96
2023-01-17T06:58:53.450Z,79.07
2023-01-17T07:01:59.811Z,79.02
2023-01-17T07:05:06.597Z,79.18
2023-01-17T07:08:12.874Z,79.04
2023-01-17T07:11:17.415Z,79.13
2023-01-17T07:14:23.666Z,79.29
2023-01-17T07:17:29.932Z,79.44
2023-01-17T07:20:34.651Z,79.60
2023-01-17T07:23:40.947Z,79.56
2023-01-17T07:26:45.556Z,79.55
2023-01-17T07:29:54.076Z,79.48
2023-01-17T07:33:01.419Z,79.35
2023-01-17T07:36:09.843Z,79.30
2023-01-17T07:39:16.271Z,79.49
2023-01-17T07:42:24.044Z,79.57
2023-01-17T07:45:30.988Z,79.64
2023-01-17T07:48:37.363Z,79.42
2023-01-17T07:51:41.910Z,79.56
2023-01-17T07:54:48.140Z,79.65
2023-01-17T07:57:54.571Z,79.75
2023-01-17T08:01:06.380Z,79.66
2023-01-17T08:04:14.198Z,79.78
2023-01-17T08:07:20.518Z,79.82
2023-01-17T08:10:25.319Z,79.86
2023-01-17T08:13:31.633Z,79.93
2023-01-17T08:16:37.783Z,79.84
2023-01-17T08:19:44.859Z,80.12
2023-01-17T08:22:53.123Z,80.30
2023-01-17T08:26:03.303Z,80.44
2023-01-17T08:29:10.322Z,80.48
2023-01-17T08:32:16.937Z,80.40
2023-01-17T08:35:23.206Z,80.41
2023-01-17T08:38:29.573Z,80.57
2023-01-17T08:41:34.041Z,80.57
2023-01-17T08:44:40.406Z,80.78
2023-01-17T08:47:44.936Z,80.81
2023-01-17T08:50:51.292Z,80.79
2023-01-17T08:53:56.404Z,80.77
2023-01-17T08:57:03.431Z,80.94
2023-01-17T09:00:12.437Z,81.07
2023-01-17T09:03:18.966Z,81.16
2023-01-17T09:06:25.227Z,81.16
2023-01-17T09:09:31.379Z,81.28
2023-01-17T09:12:39.031Z,81.22
2023-01-17T09:15:45.279Z,81.26
2023-01-17T09:18:54.781Z,81.29
2023-01-17T09:22:01.035Z,81.17
2023-01-17T09:25:08.691Z,81.26
2023-01-17T09:28:14.808Z,81.37
2023-01-17T09:31:22.743Z,81.27
2023-01-17T09:34:30.667Z,81.19
2023-01-17T09:37:37.007Z,81.32
2023-01-17T09:40:45.029Z,81.36
2023-01-17T09:43:55.166Z,81.73
2023-01-17T09:47:06.117Z,81.88
2023-01-17T09:50:26.768Z,81.79
2023-01-17T09:53:36.082Z,81.73
2023-01-17T09:56:49.591Z,81.51
2023-01-17T10:00:04.327Z,81.49
2023-01-17T10:03:38.590Z,81.49
2023-01-17T10:07:02.740Z,81.49
2023-01-17T10:10:29.596Z,81.32
2023-01-17T10:13:44.593Z,81.45
2023-01-17T10:16:56.702Z,81.41
2023-01-17T10:20:18.049Z,81.31
2023-01-17T10:24:04.225Z,81.32
2023-01-17T10:27:17.350Z,81.37
2023-01-17T10:30:28.476Z,81.24
2023-01-17T10:33:41.706Z,81.31
2023-01-17T10:36:51.459Z,81.25
2023-01-17T10:40:03.083Z,81.19
2023-01-17T10:43:19.303Z,81.15
2023-01-17T10:46:31.565Z,81.12
2023-01-17T10:49:41.316Z,81.05
2023-01-17T10:52:53.463Z,80.78
2023-01-17T10:55:59.851Z,80.70
2023-01-17T10:59:13.284Z,80.52
2023-01-17T11:02:25.252Z,80.32
2023-01-17T11:05:34.051Z,80.35
2023-01-17T11:08:53.829Z,80.42
2023-01-17T11:12:00.213Z,80.37
2023-01-17T11:15:07.827Z,80.30
2023-01-17T11:18:19.933Z,80.12
2023-01-17T11:21:27.755Z,79.99
2023-01-17T11:24:37.601Z,80.13
2023-01-17T11:27:45.095Z,80.02
2023-01-17T11:30:56.811Z,79.80
2023-01-17T11:34:19.933Z,79.60
2023-01-17T11:37:29.285Z,79.45
2023-01-17T11:40:41.128Z,79.24
2023-01-17T11:43:55.169Z,79.38
2023-01-17T11:47:19.423Z,79.41
2023-01-17T11:50:29.669Z,79.22
2023-01-17T11:53:39.261Z,79.13
2023-01-17T11:56:46.423Z,79.03
2023-01-17T11:59:57.893Z,78.95
2023-01-17T12:03:23.906Z,78.95
2023-01-17T12:06:56.519Z,78.63
2023-01-17T12:10:13.408Z,78.43
2023-01-17T12:13:49.491Z,78.47
2023-01-17T12:17:14.130Z,78.47
2023-01-17T12:20:28.639Z,78.23
2023-01-17T12:23:52.072Z,78.09
2023-01-17T12:27:08.018Z,77.99
2023-01-17T12:30:30.946Z,77.79
2023-01-17T12:33:47.778Z,77.74
2023-01-17T12:36:57.932Z,77.62
2023-01-17T12:40:08.859Z,77.29
2023-01-17T12:43:21.345Z,77.37
2023-01-17T12:46:33.008Z,77.26
2023-01-17T12:49:47.562Z,77.05
2023-01-17T12:53:00.489Z,77.03
2023-01-17T12:56:13.528Z,76.77
2023-01-17T12:59:27.056Z,76.85
2023-01-17T13:02:38.966Z,76.56
2023-01-17T13:05:48.647Z,76.60
2023-01-17T13:08:57.186Z,76.53
2023-01-17T13:12:08.222Z,76.11
2023-01-17T13:15:27.242Z,75.95
2023-01-17T13:18:33.529Z,75.80
2023-01-17T13:21:38.117Z,75.81
2023-01-17T13:24:52.187Z,75.45
2023-01-17T13:28:15.285Z,75.39
2023-01-17T13:31:30.137Z,75.30
2023-01-17T13:35:00.275Z,75.05
2023-01-17T13:38:29.245Z,74.92
2023-01-17T13:41:51.551Z,74.82
2023-01-17T13:44:59.157Z,74.70
2023-01-17T13:48:34.352Z,74.60
2023-01-17T13:52:13.276Z,74.48
2023-01-17T13:55:46.167Z,74.36
2023-01-17T13:59:06.992Z,74.36
2023-01-17T14:02:40.229Z,74.21
2023-01-17T14:05:59.011Z,73.99
2023-01-17T14:09:12.081Z,73.90
2023-01-17T14:12:32.789Z,74.01
2023-01-17T14:15:51.413Z,73.89
2023-01-17T14:18:58.626Z,73.89
2023-01-17T14:22:24.934Z,73.62
2023-01-17T14:25:39.677Z,73.76
2023-01-17T14:28:45.953Z,73.54
2023-01-17T14:31:50.569Z,73.54
2023-01-17T14:34:57.480Z,73.44
2023-01-17T14:38:05.806Z,73.35
2023-01-17T14:41:19.969Z,73.28
2023-01-17T14:44:26.233Z,73.23
2023-01-17T14:47:36.780Z,73.10
2023-01-17T14:50:45.008Z,73.10
2023-01-17T14:53:57.712Z,72.92
2023-01-17T14:57:30.844Z,72.90
2023-01-17T15:00:42.631Z,72.90
2023-01-17T15:03:51.254Z,72.62
2023-01-17T15:06:58.922Z,72.69
2023-01-17T15:10:06.122Z,72.78
2023-01-17T15:13:14.958Z,72.65
2023-01-17T15:16:28.433Z,72.55
2023-01-17T15:19:45.005Z,72.62
2023-01-17T15:22:51.347Z,72.71
2023-01-17T15:25:56.100Z,72.70
2023-01-17T15:29:06.854Z,72.68
2023-01-17T15:32:20.923Z,72.59
2023-01-17T15:35:28.344Z,72.51
2023-01-17T15:38:39.003Z,72.42
2023-01-17T15:41:47.388Z,72.64
2023-01-17T15:44:57.994Z,72.54
2023-01-17T15:48:34.603Z,72.48
2023-01-17T15:51:46.693Z,72.52
2023-01-17T15:54:54.716Z,72.55
2023-01-17T15:58:01.354Z,72.58
2023-01-17T16:01:18.133Z,72.65
2023-01-17T16:04:34.309Z,72.60
2023-01-17T16:07:40.527Z,72.48
2023-01-17T16:10:47.469Z,72.48
2023-01-17T16:13:54.081Z,72.45
2023-01-17T16:17:01.639Z,72.44
2023-01-17T16:20:16.168Z,72.55
2023-01-17T16:23:22.479Z,72.53
2023-01-17T16:26:29.200Z,72.68
2023-01-17T16:29:35.660Z,72.81
2023-01-17T16:32:41.840Z,72.90
2023-01-17T16:35:48.248Z,72.81
2023-01-17T16:38:54.768Z,72.80
2023-01-17T16:42:03.498Z,72.65
2023-01-17T16:45:11.130Z,72.82
2023-01-17T16:48:19.323Z,72.95
2023-01-17T16:51:25.848Z,72.93
2023-01-17T16:54:32.085Z,72.99
2023-01-17T16:57:38.336Z,73.15
2023-01-17T17:00:42.878Z,73.26
2023-01-17T17:03:49.561Z,73.22
2023-01-17T17:06:55.640Z,73.25
2023-01-17T17:10:01.951Z,73.25
2023-01-17T17:13:06.467Z,73.36
2023-01-17T17:16:18.496Z,73.44
2023-01-17T17:19:25.261Z,73.42
2023-01-17T17:22:31.689Z,73.59
2023-01-17T17:25:36.225Z,73.49
2023-01-17T17:28:42.491Z,73.37
2023-01-17T17:31:48.727Z,73.46
2023-01-17T17:34:54.941Z,73.59
2023-01-17T17:38:01.284Z,73.46
2023-01-17T17:41:10.596Z,73.49
2023-01-17T17:44:17.579Z,73.75
2023-01-17T17:47:24.464Z,73.78
2023-01-17T17:50:31.057Z,73.77
2023-01-17T17:53:37.056Z,73.87
2023-01-17T17:56:46.535Z,73.78
2023-01-17T17:59:52.968Z,74.06
2023-01-17T18:02:58.925Z,73.92
2023-01-17T18:06:07.581Z,73.98
2023-01-17T18:09:14.676Z,73.81
2023-01-17T18:12:20.957Z,73.88
2023-01-17T18:15:27.239Z,74.10
2023-01-17T18:18:32.719Z,74.21
2023-01-17T18:21:40.211Z,74.28
2023-01-17T18:24:46.303Z,74.34
2023-01-17T18:27:52.739Z,74.34
2023-01-17T18:30:59.107Z,74.38
2023-01-17T18:34:08.574Z,74.24
2023-01-17T18:37:14.892Z,74.42
2023-01-17T18:40:19.879Z,74.48
2023-01-17T18:43:28.893Z,74.51
2023-01-17T18:46:35.565Z,74.52
2023-01-17T18:49:41.757Z,74.66
2023-01-17T18:52:47.740Z,74.84
2023-01-17T18:55:57.594Z,74.74
2023-01-17T18:59:05.895Z,74.79
2023-01-17T19:02:13.035Z,74.86
2023-01-17T19:05:21.689Z,74.80
2023-01-17T19:08:27.650Z,74.96
2023-01-17T19:11:34.256Z,75.03
2023-01-17T19:14:40.297Z,75.08
2023-01-17T19:17:46.246Z,75.13
2023-01-17T19:20:52.198Z,75.15
2023-01-17T19:23:59.420Z,75.18
2023-01-17T19:27:07.213Z,75.20
2023-01-17T19:30:15.157Z,75.24
2023-01-17T19:33:21.562Z,75.42
2023-01-17T19:36:27.192Z,75.53
2023-01-17T19:39:33.660Z,75.60
2023-01-17T19:42:40.733Z,75.47
2023-01-17T19:45:56.191Z,75.77
2023-01-17T19:49:02.726Z,75.87
2023-01-17T19:52:09.048Z,75.77
2023-01-17T19:55:13.631Z,75.75
2023-01-17T19:58:20.028Z,75.84
2023-01-17T20:01:28.239Z,76.01
2023-01-17T20:04:34.634Z,75.98
2023-01-17T20:07:39.176Z,75.75
2023-01-17T20:10:46.741Z,75.86
2023-01-17T20:13:57.630Z,75.99
2023-01-17T20:17:04.725Z,76.00
2023-01-17T20:20:13.632Z,76.02
2023-01-17T20:23:19.809Z,76.15
2023-01-17T20:26:34.886Z,76.12
2023-01-17T20:29:41.455Z,75.99
2023-01-17T20:32:47.920Z,75.86
2023-01-17T20:36:09.090Z,76.22
2023-01-17T20:39:18.206Z,76.16
2023-01-17T20:42:24.378Z,76.39
2023-01-17T20:45:30.690Z,76.31
2023-01-17T20:48:35.511Z,76.38
2023-01-17T20:51:44.442Z,76.20
2023-01-17T20:54:51.863Z,76.24
2023-01-17T20:57:59.876Z,75.97
2023-01-17T21:01:06.932Z,76.01
2023-01-17T21:04:14.790Z,75.88
2023-01-17T21:07:21.245Z,75.85
2023-01-17T21:10:29.475Z,75.99
2023-01-17T21:13:35.977Z,76.03
2023-01-17T21:16:42.415Z,76.12
2023-01-17T21:19:48.647Z,76.08
2023-01-17T21:22:54.975Z,76.06
2023-01-17T21:25:59.571Z,76.16
2023-01-17T21:29:05.895Z,76.19
2023-01-17T21:32:10.331Z,76.21
2023-01-17T21:35:16.819Z,76.16
2023-01-17T21:38:23.118Z,76.25
2023-01-17T21:41:28.751Z,76.05
2023-01-17T21:44:36.474Z,76.09
2023-01-17T21:47:44.783Z,76.05
2023-01-17T21:50:52.786Z,75.81
2023-01-17T21:53:59.173Z,75.81
2023-01-17T21:57:21.082Z,75.78
2023-01-17T22:00:27.320Z,75.62
2023-01-17T22:03:33.630Z,75.72
2023-01-17T22:06:39.160Z,75.61
2023-01-17T22:09:45.505Z,75.70
2023-01-17T22:12:52.727Z,75.95
2023-01-17T22:16:03.631Z,75.91
2023-01-17T22:19:09.882Z,76.05
2023-01-17T22:22:16.343Z,76.16
2023-01-17T22:25:23.370Z,76.31
2023-01-17T22:28:32.694Z,76.32
2023-01-17T22:31:39.094Z,76.42
2023-01-17T22:34:43.614Z,76.62
2023-01-17T22:37:49.939Z,76.57
2023-01-17T22:40:55.367Z,76.57
2023-01-17T22:44:03.582Z,76.76
2023-01-17T22:47:09.952Z,76.71
2023-01-17T22:50:14.433Z,76.82
2023-01-17T22:53:20.596Z,76.78
2023-01-17T22:56:29.261Z,76.78
2023-01-17T22:59:35.726Z,76.83
2023-01-17T23:02:42.766Z,76.84
2023-01-17T23:05:49.073Z,76.89
2023-01-17T23:08:57.366Z,77.14
2023-01-17T23:12:03.510Z,77.07
2023-01-17T23:15:28.359Z,77.15
2023-01-17T23:18:52.092Z,77.17
2023-01-17T23:22:19.392Z,77.18
2023-01-17T23:25:25.765Z,77.21
2023-01-17T23:28:31.988Z,77.27
2023-01-17T23:31:39.499Z,77.32
2023-01-17T23:34:47.771Z,77.16
2023-01-17T23:38:11.520Z,77.11
2023-01-17T23:41:34.871Z,77.33
2023-01-17T23:44:40.957Z,77.36
2023-01-17T23:47:47.387Z,77.36
2023-01-17T23:50:57.764Z,77.57
2023-01-17T23:54:06.299Z,77.70
2023-01-17T23:57:12.542Z,77.55
